createdAt,value
2017-09-02T00:01:57.925Z,99202.28
2017-09-02T00:04:25.415Z,99223.24
2017-09-02T00:06:52.899Z,99203.05
2017-09-02T00:09:20.403Z,99191.56
2017-09-02T00:11:47.865Z,99193.20
2017-09-02T00:14:15.362Z,99191.03
2017-09-02T00:16:42.818Z,99190.16
2017-09-02T00:19:10.432Z,99192.73
2017-09-02T00:21:37.889Z,99188.00
2017-09-02T00:24:05.397Z,99182.02
2017-09-02T00:26:32.882Z,99192.97
2017-09-02T00:29:01.136Z,99192.73
2017-09-02T00:31:28.635Z,99192.41
2017-09-02T00:33:56.116Z,99180.75
2017-09-02T00:36:23.589Z,99196.90
2017-09-02T00:38:51.083Z,99196.09
2017-09-02T00:41:18.551Z,99196.53
2017-09-02T00:43:46.022Z,99191.72
2017-09-02T00:46:13.703Z,99198.08
2017-09-02T00:48:41.173Z,99197.05
2017-09-02T00:51:09.567Z,99196.09
2017-09-02T00:53:37.075Z,99193.89
2017-09-02T00:56:06.090Z,99188.26
2017-09-02T00:58:33.587Z,99190.72
2017-09-02T01:01:01.037Z,99186.25
2017-09-02T01:03:28.513Z,99185.77
2017-09-02T01:05:55.976Z,99181.51
2017-09-02T01:08:23.519Z,99181.94
2017-09-02T01:10:50.987Z,99179.84
2017-09-02T01:13:18.475Z,99178.34
2017-09-02T01:15:45.949Z,99181.08
2017-09-02T01:18:13.440Z,99179.05
2017-09-02T01:20:40.914Z,99181.38
2017-09-02T01:23:08.384Z,99183.81
2017-09-02T01:25:35.857Z,99181.18
2017-09-02T01:28:03.367Z,99182.67
2017-09-02T01:30:38.846Z,99185.37
2017-09-02T01:33:06.320Z,99191.84
2017-09-02T01:35:33.801Z,99188.91
2017-09-02T01:38:01.262Z,99191.44
2017-09-02T01:40:28.745Z,99187.64
2017-09-02T01:42:56.222Z,99186.37
2017-09-02T01:45:23.707Z,99191.39
2017-09-02T01:47:51.193Z,99195.05
2017-09-02T01:50:18.677Z,99194.30
2017-09-02T01:52:46.205Z,99195.20
2017-09-02T01:55:13.690Z,99200.63
2017-09-02T01:57:41.199Z,99198.83
2017-09-02T02:00:08.702Z,99201.68
2017-09-02T02:02:36.211Z,99189.30
2017-09-02T02:05:03.753Z,99187.67
2017-09-02T02:07:31.222Z,99181.91
2017-09-02T02:09:58.737Z,99184.23
2017-09-02T02:12:26.196Z,99181.41
2017-09-02T02:14:53.694Z,99179.98
2017-09-02T02:17:21.186Z,99175.59
2017-09-02T02:19:48.688Z,99170.34
2017-09-02T02:22:16.195Z,99171.83
2017-09-02T02:24:43.658Z,99169.00
2017-09-02T02:27:11.132Z,99170.95
2017-09-02T02:29:38.608Z,99170.27
2017-09-02T02:32:06.372Z,99172.41
2017-09-02T02:34:33.831Z,99171.74
2017-09-02T02:37:01.345Z,99170.06
2017-09-02T02:39:35.323Z,99170.00
2017-09-02T02:42:02.821Z,99171.31
2017-09-02T02:44:30.317Z,99167.50
2017-09-02T02:46:57.805Z,99170.98
2017-09-02T02:49:25.287Z,99169.83
2017-09-02T02:51:52.755Z,99170.07
2017-09-02T02:54:20.238Z,99176.47
2017-09-02T02:56:47.725Z,99177.95
2017-09-02T02:59:16.030Z,99174.62
2017-09-02T03:01:43.524Z,99176.03
2017-09-02T03:04:10.988Z,99177.25
2017-09-02T03:06:38.513Z,99178.56
2017-09-02T03:09:05.977Z,99175.21
2017-09-02T03:11:33.951Z,99177.23
2017-09-02T03:14:01.442Z,99170.69
2017-09-02T03:16:29.701Z,99173.62
2017-09-02T03:18:57.188Z,99168.83
2017-09-02T03:21:24.636Z,99167.73
2017-09-02T03:23:52.143Z,99175.13
2017-09-02T03:26:19.627Z,99157.87
2017-09-02T03:28:47.107Z,99166.03
2017-09-02T03:31:14.618Z,99166.75
2017-09-02T03:33:42.084Z,99172.20
2017-09-02T03:36:10.562Z,99168.11
2017-09-02T03:38:38.030Z,99159.83
2017-09-02T03:41:05.787Z,99152.48
2017-09-02T03:43:33.256Z,99167.60
2017-09-02T03:46:00.779Z,99166.67
2017-09-02T03:48:28.262Z,99145.86
2017-09-02T03:50:56.558Z,99167.15
2017-09-02T03:53:24.025Z,99166.95
2017-09-02T03:55:51.532Z,99167.44
2017-09-02T03:58:19.114Z,99165.47
2017-09-02T04:00:46.590Z,99169.07
2017-09-02T04:03:14.077Z,99167.55
2017-09-02T04:05:43.726Z,99163.27
2017-09-02T04:08:12.417Z,99163.19
2017-09-02T04:10:39.898Z,99166.33
2017-09-02T04:13:07.369Z,99169.31
2017-09-02T04:15:34.843Z,99167.42
2017-09-02T04:18:04.842Z,99163.42
2017-09-02T04:20:32.348Z,99167.92
2017-09-02T04:23:02.650Z,99170.37
2017-09-02T04:25:30.159Z,99171.38
2017-09-02T04:27:57.829Z,99162.31
2017-09-02T04:30:25.331Z,99164.12
2017-09-02T04:32:52.846Z,99168.00
2017-09-02T04:35:20.674Z,99164.19
2017-09-02T04:37:48.139Z,99165.80
2017-09-02T04:40:15.628Z,99160.87
2017-09-02T04:42:43.114Z,99162.04
2017-09-02T04:45:10.610Z,99167.61
2017-09-02T04:47:38.098Z,99165.89
2017-09-02T04:50:05.565Z,99166.33
2017-09-02T04:52:33.074Z,99153.80
2017-09-02T04:55:00.546Z,99157.85
2017-09-02T04:57:28.286Z,99160.38
2017-09-02T04:59:55.748Z,99157.27
2017-09-02T05:02:23.363Z,99169.26
2017-09-02T05:04:50.817Z,99172.67
2017-09-02T05:07:18.304Z,99172.70
2017-09-02T05:09:45.816Z,99178.73
2017-09-02T05:12:13.277Z,99178.81
2017-09-02T05:14:40.882Z,99176.91
2017-09-02T05:17:08.352Z,99175.81
2017-09-02T05:19:35.833Z,99169.04
2017-09-02T05:22:03.330Z,99167.16
2017-09-02T05:24:30.858Z,99164.28
2017-09-02T05:26:58.417Z,99171.09
2017-09-02T05:29:25.919Z,99165.89
2017-09-02T05:31:53.422Z,99163.98
2017-09-02T05:34:20.912Z,99169.33
2017-09-02T05:36:48.439Z,99171.36
2017-09-02T05:39:16.704Z,99169.86
2017-09-02T05:41:44.206Z,99168.70
2017-09-02T05:44:11.687Z,99170.16
2017-09-02T05:46:39.197Z,99169.17
2017-09-02T05:49:06.653Z,99172.84
2017-09-02T05:51:34.143Z,99170.95
2017-09-02T05:54:01.618Z,99162.38
2017-09-02T05:56:29.100Z,99170.36
2017-09-02T05:58:56.582Z,99164.82
2017-09-02T06:01:24.822Z,99171.00
2017-09-02T06:03:52.319Z,99172.47
2017-09-02T06:06:19.787Z,99179.07
2017-09-02T06:08:47.298Z,99170.82
2017-09-02T06:11:14.772Z,99177.69
2017-09-02T06:13:42.288Z,99179.66
2017-09-02T06:16:09.771Z,99177.45
2017-09-02T06:18:37.232Z,99180.77
2017-09-02T06:21:04.771Z,99180.69
2017-09-02T06:23:32.242Z,99184.55
2017-09-02T06:25:59.709Z,99187.17
2017-09-02T06:28:27.161Z,99189.44
2017-09-02T06:30:55.123Z,99184.45
2017-09-02T06:33:22.581Z,99189.16
2017-09-02T06:35:50.070Z,99192.70
2017-09-02T06:38:17.544Z,99190.80
2017-09-02T06:40:45.052Z,99191.56
2017-09-02T06:43:12.526Z,99198.70
2017-09-02T06:45:39.974Z,99204.09
2017-09-02T06:48:07.458Z,99200.59
2017-09-02T06:50:34.928Z,99191.27
2017-09-02T06:53:02.428Z,99203.80
2017-09-02T06:55:29.879Z,99200.83
2017-09-02T06:57:57.369Z,99200.03
2017-09-02T07:00:24.839Z,99204.05
2017-09-02T07:02:52.356Z,99200.69
2017-09-02T07:05:19.838Z,99206.19
2017-09-02T07:07:47.331Z,99205.95
2017-09-02T07:10:14.842Z,99208.11
2017-09-02T07:12:42.371Z,99208.91
2017-09-02T07:15:09.867Z,99209.41
2017-09-02T07:17:37.450Z,99211.50
2017-09-02T07:20:05.840Z,99214.42
2017-09-02T07:22:33.442Z,99207.74
2017-09-02T07:25:00.912Z,99174.73
2017-09-02T07:27:28.391Z,99219.45
2017-09-02T07:29:55.897Z,99208.70
2017-09-02T07:32:23.457Z,99215.25
2017-09-02T07:34:50.968Z,99218.05
2017-09-02T07:37:18.439Z,99215.19
2017-09-02T07:39:45.940Z,99221.38
2017-09-02T07:42:13.439Z,99218.64
2017-09-02T07:44:40.928Z,99219.48
2017-09-02T07:47:08.455Z,99219.39
2017-09-02T07:49:35.911Z,99218.39
2017-09-02T07:52:04.852Z,99192.52
2017-09-02T07:54:32.346Z,99217.91
2017-09-02T07:56:59.843Z,99211.50
2017-09-02T07:59:28.107Z,99213.33
2017-09-02T08:01:56.366Z,99206.16
2017-09-02T08:04:23.858Z,99208.78
2017-09-02T08:06:51.318Z,99213.19
2017-09-02T08:09:18.809Z,99204.11
2017-09-02T08:11:46.267Z,99206.82
2017-09-02T08:14:13.754Z,99200.59
2017-09-02T08:16:41.229Z,99206.86
2017-09-02T08:19:08.713Z,99207.84
2017-09-02T08:21:36.223Z,99211.50
2017-09-02T08:24:03.710Z,99212.23
2017-09-02T08:26:31.956Z,99210.91
2017-09-02T08:29:00.650Z,99209.09
2017-09-02T08:31:28.174Z,99210.83
2017-09-02T08:33:55.683Z,99210.92
2017-09-02T08:36:23.212Z,99211.36
2017-09-02T08:38:50.711Z,99216.96
2017-09-02T08:41:18.650Z,99216.88
2017-09-02T08:43:46.106Z,99226.09
2017-09-02T08:46:13.585Z,99225.52
2017-09-02T08:48:41.092Z,99226.45
2017-09-02T08:51:10.865Z,99227.52
2017-09-02T08:53:38.430Z,99234.02
2017-09-02T08:56:07.566Z,99230.82
2017-09-02T08:58:35.076Z,99216.93
2017-09-02T09:01:02.545Z,99229.17
2017-09-02T09:03:30.890Z,99236.25
2017-09-02T09:05:58.349Z,99235.43
2017-09-02T09:08:25.854Z,99236.34
2017-09-02T09:10:53.338Z,99235.58
2017-09-02T09:19:06.010Z,99240.27
2017-09-02T09:21:33.466Z,99239.77
2017-09-02T09:24:00.939Z,99233.17
2017-09-02T09:26:28.452Z,99240.05
2017-09-02T09:28:56.473Z,99246.73
2017-09-02T09:31:25.180Z,99238.94
2017-09-02T09:33:53.464Z,99236.81
2017-09-02T09:36:20.973Z,99237.93
2017-09-02T09:38:48.433Z,99241.50
2017-09-02T09:41:15.943Z,99232.52
2017-09-02T09:43:43.437Z,99230.84
2017-09-02T09:46:10.924Z,99228.94
2017-09-02T09:48:38.469Z,99232.11
2017-09-02T09:51:05.977Z,99232.16
2017-09-02T09:53:33.595Z,99226.66
2017-09-02T09:56:01.218Z,99225.52
2017-09-02T09:58:28.815Z,99218.98
2017-09-02T10:00:57.668Z,99218.19
2017-09-02T10:03:25.215Z,99204.78
2017-09-02T10:05:52.718Z,99214.90
2017-09-02T10:08:20.235Z,99210.59
2017-09-02T10:10:47.790Z,99206.00
2017-09-02T10:13:15.315Z,99200.39
2017-09-02T10:15:42.848Z,99199.27
2017-09-02T10:18:11.208Z,99202.09
2017-09-02T10:20:38.762Z,99199.37
2017-09-02T10:23:06.227Z,99191.59
2017-09-02T10:25:33.758Z,99200.61
2017-09-02T10:28:01.212Z,99200.98
2017-09-02T10:30:28.775Z,99203.84
2017-09-02T10:32:58.032Z,99195.87
2017-09-02T10:35:28.985Z,99199.02
2017-09-02T10:37:56.641Z,99166.52
2017-09-02T10:40:24.160Z,99188.24
2017-09-02T10:42:51.699Z,99185.41
2017-09-02T10:45:19.170Z,99183.89
2017-09-02T10:47:46.716Z,99180.03
2017-09-02T10:50:14.204Z,99187.28
2017-09-02T10:52:42.631Z,99183.30
2017-09-02T10:55:10.162Z,99180.16
2017-09-02T10:57:37.689Z,99173.83
2017-09-02T11:00:06.327Z,99158.61
2017-09-02T11:02:33.847Z,99171.93
2017-09-02T11:05:01.424Z,99171.75
2017-09-02T11:07:28.914Z,99163.73
2017-09-02T11:09:57.135Z,99167.19
2017-09-02T11:12:25.231Z,99163.62
2017-09-02T11:14:52.734Z,99167.08
2017-09-02T11:17:20.796Z,99164.09
2017-09-02T11:19:48.285Z,99169.16
2017-09-02T11:22:15.750Z,99173.58
2017-09-02T11:24:44.197Z,99170.73
2017-09-02T11:27:11.702Z,99177.70
2017-09-02T11:29:39.187Z,99174.41
2017-09-02T11:32:06.769Z,99175.78
2017-09-02T11:34:34.235Z,99178.38
2017-09-02T11:37:01.770Z,99179.42
2017-09-02T11:39:29.267Z,99178.12
2017-09-02T11:41:56.731Z,99174.77
2017-09-02T11:44:24.254Z,99175.41
2017-09-02T11:46:51.752Z,99189.37
2017-09-02T11:49:19.241Z,99174.67
2017-09-02T11:51:46.739Z,99168.59
2017-09-02T11:54:14.206Z,99166.59
2017-09-02T11:56:41.692Z,99170.80
2017-09-02T11:59:09.173Z,99169.27
2017-09-02T12:01:36.655Z,99172.66
2017-09-02T12:04:04.931Z,99167.12
2017-09-02T12:06:32.404Z,99165.95
2017-09-02T12:08:59.888Z,99171.63
2017-09-02T12:11:27.357Z,99177.68
2017-09-02T12:13:55.770Z,99172.94
2017-09-02T12:16:23.246Z,99159.08
2017-09-02T12:18:50.744Z,99164.73
2017-09-02T12:21:18.212Z,99164.44
2017-09-02T12:23:45.747Z,99167.09
2017-09-02T12:26:13.204Z,99173.59
2017-09-02T12:28:40.702Z,99161.05
2017-09-02T12:31:08.361Z,99161.81
2017-09-02T12:33:35.892Z,99155.34
2017-09-02T12:36:04.412Z,99158.61
2017-09-02T12:38:31.908Z,99158.12
2017-09-02T12:40:59.407Z,99160.28
2017-09-02T12:43:26.917Z,99152.09
2017-09-02T12:45:54.452Z,99158.42
2017-09-02T12:48:21.962Z,99155.27
2017-09-02T12:50:50.156Z,99149.83
2017-09-02T12:53:18.129Z,99144.69
2017-09-02T12:55:45.604Z,99148.89
2017-09-02T12:58:13.102Z,99143.52
2017-09-02T13:00:40.618Z,99140.70
2017-09-02T13:03:08.091Z,99145.56
2017-09-02T13:05:35.582Z,99148.54
2017-09-02T13:08:03.075Z,99140.69
2017-09-02T13:10:30.716Z,99130.50
2017-09-02T13:12:58.226Z,99138.63
2017-09-02T13:15:25.695Z,99134.88
2017-09-02T13:17:53.219Z,99133.91
2017-09-02T13:20:20.712Z,99141.42
2017-09-02T13:22:48.392Z,99141.70
2017-09-02T13:25:15.853Z,99137.59
2017-09-02T13:27:43.500Z,99142.11
2017-09-02T13:30:11.063Z,99141.82
2017-09-02T13:32:38.540Z,99140.56
2017-09-02T13:35:06.040Z,99133.02
2017-09-02T13:37:33.519Z,99133.30
2017-09-02T13:40:00.998Z,99133.02
2017-09-02T13:42:29.330Z,99127.29
2017-09-02T13:44:57.304Z,99138.39
2017-09-02T13:47:24.797Z,99144.00
2017-09-02T13:49:52.290Z,99149.38
2017-09-02T13:52:19.766Z,99148.34
2017-09-02T13:54:47.250Z,99149.44
2017-09-02T13:57:14.726Z,99154.87
2017-09-02T13:59:42.337Z,99151.24
2017-09-02T14:02:09.838Z,99152.41
2017-09-02T14:04:37.339Z,99154.41
2017-09-02T14:07:05.823Z,99147.41
2017-09-02T14:09:33.581Z,99152.84
2017-09-02T14:12:01.103Z,99153.86
2017-09-02T14:14:28.584Z,99159.36
2017-09-02T14:16:56.079Z,99149.45
2017-09-02T14:19:23.549Z,99154.73
2017-09-02T14:21:51.046Z,99159.46
2017-09-02T14:24:18.544Z,99154.96
2017-09-02T14:26:46.075Z,99158.16
2017-09-02T14:29:13.559Z,99168.42
2017-09-02T14:31:41.219Z,99168.45
2017-09-02T14:34:08.696Z,99164.23
2017-09-02T14:36:36.158Z,99159.39
2017-09-02T14:39:03.665Z,99171.93
2017-09-02T14:41:31.134Z,99167.18
2017-09-02T14:43:58.629Z,99160.19
2017-09-02T14:46:26.098Z,99162.02
2017-09-02T14:48:53.582Z,99151.77
2017-09-02T14:51:21.071Z,99142.42
2017-09-02T14:53:48.589Z,99151.95
2017-09-02T14:56:16.085Z,99153.39
2017-09-02T14:58:43.585Z,99151.20
2017-09-02T15:01:11.064Z,99153.84
2017-09-02T15:03:38.525Z,99154.10
2017-09-02T15:06:06.027Z,99144.18
2017-09-02T15:08:33.485Z,99140.81
2017-09-02T15:11:01.010Z,99133.59
2017-09-02T15:13:28.473Z,99140.67
2017-09-02T15:15:55.986Z,99127.69
2017-09-02T15:18:23.577Z,99135.77
2017-09-02T15:20:51.079Z,99140.23
2017-09-02T15:23:18.557Z,99137.01
2017-09-02T15:25:46.079Z,99126.98
2017-09-02T15:28:13.567Z,99135.13
2017-09-02T15:30:41.029Z,99131.72
2017-09-02T15:33:08.524Z,99138.14
2017-09-02T15:35:35.994Z,99136.64
2017-09-02T15:38:03.512Z,99132.97
2017-09-02T15:40:31.021Z,99137.05
2017-09-02T15:42:58.559Z,99135.45
2017-09-02T15:45:26.037Z,99122.94
2017-09-02T15:47:53.548Z,99136.34
2017-09-02T15:50:21.031Z,99131.45
2017-09-02T15:52:48.561Z,99132.99
2017-09-02T15:55:16.032Z,99131.63
2017-09-02T15:57:43.529Z,99135.14
2017-09-02T16:00:11.954Z,99137.66
2017-09-02T16:02:39.415Z,99138.58
2017-09-02T16:05:06.915Z,99135.53
2017-09-02T16:07:34.394Z,99134.11
2017-09-02T16:10:01.879Z,99139.53
2017-09-02T16:12:30.083Z,99133.20
2017-09-02T16:14:57.575Z,99129.02
2017-09-02T16:17:25.081Z,99131.73
2017-09-02T16:19:52.636Z,99139.27
2017-09-02T16:22:20.125Z,99128.17
2017-09-02T16:24:47.620Z,99135.81
2017-09-02T16:27:15.121Z,99132.72
2017-09-02T16:29:43.300Z,99127.41
2017-09-02T16:32:10.790Z,99140.63
2017-09-02T16:34:38.435Z,99137.61
2017-09-02T16:37:05.969Z,99140.45
2017-09-02T16:39:33.484Z,99136.27
2017-09-02T16:42:01.010Z,99125.04
2017-09-02T16:44:28.478Z,99145.59
2017-09-02T16:46:56.021Z,99140.16
2017-09-02T16:49:23.559Z,99129.27
2017-09-02T16:51:51.040Z,99140.70
2017-09-02T16:54:18.504Z,99147.05
2017-09-02T16:56:46.030Z,99153.91
2017-09-02T16:59:13.599Z,99138.65
2017-09-02T17:01:41.176Z,99153.77
2017-09-02T17:04:08.711Z,99147.29
2017-09-02T17:06:36.244Z,99164.27
2017-09-02T17:09:03.770Z,99173.09
2017-09-02T17:11:31.294Z,99183.12
2017-09-02T17:13:58.814Z,99182.28
2017-09-02T17:16:26.331Z,99181.29
2017-09-02T17:18:53.840Z,99181.90
2017-09-02T17:21:21.308Z,99179.88
2017-09-02T17:23:48.805Z,99180.12
2017-09-02T17:26:16.307Z,99183.14
2017-09-02T17:28:43.790Z,99191.91
2017-09-02T17:31:11.333Z,99190.40
2017-09-02T17:33:38.813Z,99181.91
2017-09-02T17:36:06.344Z,99196.50
2017-09-02T17:38:33.838Z,99204.09
2017-09-02T17:41:01.305Z,99201.63
2017-09-02T17:43:28.821Z,99202.83
2017-09-02T17:45:56.636Z,99206.29
2017-09-02T17:48:24.177Z,99209.20
2017-09-02T17:50:51.705Z,99208.87
2017-09-02T17:53:19.462Z,99212.44
2017-09-02T17:55:46.951Z,99209.83
2017-09-02T17:58:14.475Z,99217.39
2017-09-02T18:00:41.946Z,99219.03
2017-09-02T18:03:09.428Z,99223.97
2017-09-02T18:05:36.933Z,99221.11
2017-09-02T18:08:04.410Z,99221.65
2017-09-02T18:10:31.929Z,99212.95
2017-09-02T18:12:59.417Z,99217.03
2017-09-02T18:15:26.928Z,99214.75
2017-09-02T18:17:55.927Z,99212.25
2017-09-02T18:20:23.449Z,99215.77
2017-09-02T18:22:50.953Z,99212.09
2017-09-02T18:25:18.473Z,99180.25
2017-09-02T18:27:46.006Z,99212.22
2017-09-02T18:30:13.490Z,99214.16
2017-09-02T18:32:41.026Z,99218.51
2017-09-02T18:35:08.780Z,99220.84
2017-09-02T18:37:36.634Z,99214.92
2017-09-02T18:40:04.129Z,99216.46
2017-09-02T18:42:33.115Z,99206.53
2017-09-02T18:45:00.614Z,99226.03
2017-09-02T18:47:28.134Z,99219.42
2017-09-02T18:49:55.912Z,99229.09
2017-09-02T18:52:23.424Z,99221.81
2017-09-02T18:54:50.977Z,99223.03
2017-09-02T18:57:18.452Z,99245.13
2017-09-02T18:59:46.607Z,99240.55
2017-09-02T19:02:14.145Z,99240.69
2017-09-02T19:04:41.710Z,99237.70
2017-09-02T19:07:09.678Z,99236.67
2017-09-02T19:09:37.230Z,99237.52
2017-09-02T19:12:05.455Z,99242.22
2017-09-02T19:14:32.974Z,99238.20
2017-09-02T19:17:01.057Z,99238.72
2017-09-02T19:19:28.578Z,99256.10
2017-09-02T19:21:56.119Z,99256.21
2017-09-02T19:24:24.577Z,99255.78
2017-09-02T19:26:52.136Z,99257.71
2017-09-02T19:29:20.882Z,99252.03
2017-09-02T19:31:51.419Z,99258.16
2017-09-02T19:34:20.819Z,99254.05
2017-09-02T19:36:48.351Z,99262.66
2017-09-02T19:39:15.822Z,99267.92
2017-09-02T19:41:43.315Z,99263.59
2017-09-02T19:44:10.775Z,99267.77
2017-09-02T19:46:38.266Z,99267.72
2017-09-02T19:49:05.982Z,99269.24
2017-09-02T19:51:33.579Z,99263.48
2017-09-02T19:54:01.058Z,99260.06
2017-09-02T19:56:28.513Z,99267.27
2017-09-02T19:58:56.005Z,99264.89
2017-09-02T20:01:23.483Z,99258.03
2017-09-02T20:03:55.927Z,99261.95
2017-09-02T20:06:23.406Z,99258.08
2017-09-02T20:08:50.909Z,99254.27
2017-09-02T20:11:18.387Z,99259.22
2017-09-02T20:13:45.891Z,99263.69
2017-09-02T20:16:13.364Z,99232.55
2017-09-02T20:18:40.858Z,99256.90
2017-09-02T20:21:08.322Z,99258.22
2017-09-02T20:23:37.464Z,99255.73
2017-09-02T20:26:05.836Z,99281.41
2017-09-02T20:28:33.285Z,99263.40
2017-09-02T20:31:00.809Z,99263.06
2017-09-02T20:33:28.351Z,99274.88
2017-09-02T20:35:55.846Z,99259.50
2017-09-02T20:38:23.323Z,99262.23
2017-09-02T20:40:50.809Z,99264.25
2017-09-02T20:43:18.286Z,99269.66
2017-09-02T20:45:45.783Z,99277.35
2017-09-02T20:48:13.263Z,99270.53
2017-09-02T20:50:40.720Z,99277.72
2017-09-02T20:53:08.254Z,99274.92
2017-09-02T20:55:35.726Z,99276.72
2017-09-02T20:58:03.239Z,99277.23
2017-09-02T21:00:31.120Z,99270.90
2017-09-02T21:03:02.295Z,99277.30
2017-09-02T21:05:29.799Z,99267.23
2017-09-02T21:07:59.537Z,99242.80
2017-09-02T21:10:28.055Z,99271.99
2017-09-02T21:12:56.797Z,99264.39
2017-09-02T21:15:25.766Z,99266.67
2017-09-02T21:17:53.618Z,99266.91
2017-09-02T21:20:22.564Z,99264.25
2017-09-02T21:22:50.070Z,99263.06
2017-09-02T21:25:17.541Z,99260.61
2017-09-02T21:30:51.294Z,99255.36
2017-09-02T21:33:18.803Z,99256.30
2017-09-02T21:35:47.162Z,99230.30
2017-09-02T21:38:16.706Z,99246.81
2017-09-02T21:40:47.737Z,99239.83
2017-09-02T21:43:15.259Z,99225.90
2017-09-02T21:45:42.717Z,99231.82
2017-09-02T21:48:10.215Z,99230.53
2017-09-02T21:50:37.689Z,99232.94
2017-09-02T21:53:05.372Z,99236.08
2017-09-02T21:55:32.854Z,99239.93
2017-09-02T22:01:02.360Z,99236.69
2017-09-02T22:03:29.987Z,99244.52
2017-09-02T22:05:57.464Z,99250.59
2017-09-02T22:08:24.967Z,99258.81
2017-09-02T22:10:52.456Z,99260.17
2017-09-02T22:13:19.927Z,99258.02
2017-09-02T22:15:47.414Z,99259.86
2017-09-02T22:18:14.889Z,99264.70
2017-09-02T22:20:42.406Z,99268.64
2017-09-02T22:23:09.875Z,99260.09
2017-09-02T22:25:37.370Z,99265.47
2017-09-02T22:28:05.020Z,99265.01
2017-09-02T22:30:32.513Z,99255.42
2017-09-02T22:33:00.770Z,99247.63
2017-09-02T22:35:28.258Z,99264.70
2017-09-02T22:37:55.752Z,99257.44
2017-09-02T22:40:23.229Z,99254.06
2017-09-02T22:42:50.722Z,99254.36
2017-09-02T22:45:18.237Z,99251.89
2017-09-02T22:47:45.705Z,99244.63
2017-09-02T22:50:13.234Z,99228.33
2017-09-02T22:52:40.723Z,99243.47
2017-09-02T22:55:08.843Z,99250.16
2017-09-02T22:57:36.318Z,99249.14
2017-09-02T23:00:04.783Z,99241.32
2017-09-02T23:02:32.259Z,99244.75
2017-09-02T23:04:59.758Z,99243.75
2017-09-02T23:07:27.256Z,99225.82
2017-09-02T23:09:55.073Z,99236.63
2017-09-02T23:12:22.568Z,99234.64
2017-09-02T23:14:50.054Z,99234.69
2017-09-02T23:17:17.810Z,99235.11
2017-09-02T23:19:45.288Z,99226.88
2017-09-02T23:22:12.759Z,99229.53
2017-09-02T23:24:40.953Z,99218.78
2017-09-02T23:27:08.551Z,99213.97
2017-09-02T23:29:36.023Z,99214.30
2017-09-02T23:32:03.532Z,99216.91
2017-09-02T23:34:30.996Z,99220.28
2017-09-02T23:36:58.482Z,99213.33
2017-09-02T23:39:25.945Z,99211.27
2017-09-02T23:41:53.433Z,99214.67
2017-09-02T23:44:20.924Z,99216.44
2017-09-02T23:46:48.423Z,99205.98
2017-09-02T23:49:15.879Z,99211.28
2017-09-02T23:51:43.373Z,99211.41
2017-09-02T23:54:10.909Z,99219.51
2017-09-02T23:56:38.403Z,99224.01
2017-09-02T23:59:05.898Z,99220.94
